createdAt,value
2023-02-05T00:00:12.098Z,-1.3
2023-02-05T00:01:15.761Z,-1.3
2023-02-05T00:02:19.298Z,-1.2
2023-02-05T00:03:23.395Z,-1.3
2023-02-05T00:04:27.459Z,-1.2
2023-02-05T00:05:30.517Z,-1.3
2023-02-05T00:06:34.193Z,-1.4
2023-02-05T00:07:37.281Z,-1.4
2023-02-05T00:08:40.441Z,-1.4
2023-02-05T00:09:44.263Z,-1.4
2023-02-05T00:10:47.350Z,-1.4
2023-02-05T00:11:50.685Z,-1.4
2023-02-05T00:12:54.121Z,-1.3
2023-02-05T00:13:57.256Z,-1.4
2023-02-05T00:15:01.130Z,-1.4
2023-02-05T00:16:04.515Z,-1.4
2023-02-05T00:17:07.810Z,-1.4
2023-02-05T00:18:10.947Z,-1.5
2023-02-05T00:19:14.079Z,-1.5
2023-02-05T00:20:17.522Z,-1.5
2023-02-05T00:21:21.631Z,-1.5
2023-02-05T00:22:24.372Z,-1.4
2023-02-05T00:23:27.744Z,-1.5
2023-02-05T00:24:31.332Z,-1.4
2023-02-05T00:25:36.273Z,-1.4
2023-02-05T00:26:40.068Z,-1.4
2023-02-05T00:27:44.347Z,-1.4
2023-02-05T00:28:47.857Z,-1.5
2023-02-05T00:29:51.755Z,-1.5
2023-02-05T00:30:56.269Z,-1.5
2023-02-05T00:31:59.784Z,-1.5
2023-02-05T00:33:02.960Z,-1.5
2023-02-05T00:34:05.776Z,-1.5
2023-02-05T00:35:08.558Z,-1.5
2023-02-05T00:36:14.489Z,-1.6
2023-02-05T00:37:17.795Z,-1.7
2023-02-05T00:38:21.475Z,-1.7
2023-02-05T00:40:42.805Z,-1.8
2023-02-05T00:41:45.941Z,-1.9
2023-02-05T00:42:48.718Z,-1.9
2023-02-05T00:43:51.983Z,-1.8
2023-02-05T00:44:55.545Z,-1.9
2023-02-05T00:45:59.843Z,-1.9
2023-02-05T00:47:02.383Z,-1.8
2023-02-05T00:48:05.750Z,-1.8
2023-02-05T00:49:09.196Z,-1.8
2023-02-05T00:50:12.313Z,-1.8
2023-02-05T00:51:14.781Z,-1.8
2023-02-05T00:52:18.413Z,-1.8
2023-02-05T00:53:21.808Z,-1.8
2023-02-05T00:54:24.516Z,-1.8
2023-02-05T00:55:27.537Z,-1.8
2023-02-05T00:56:31.773Z,-1.8
2023-02-05T00:57:35.144Z,-1.8
2023-02-05T00:58:39.138Z,-1.9
2023-02-05T00:59:42.832Z,-1.9
2023-02-05T01:00:46.313Z,-1.9
2023-02-05T01:01:50.494Z,-1.8
2023-02-05T01:02:54.175Z,-1.9
2023-02-05T01:03:56.891Z,-1.8
2023-02-05T01:05:00.319Z,-2
2023-02-05T01:06:03.977Z,-2
2023-02-05T01:07:07.407Z,-1.9
2023-02-05T01:08:10.126Z,-2
2023-02-05T01:09:12.833Z,-2
2023-02-05T01:10:16.570Z,-2
2023-02-05T01:11:19.371Z,-2
2023-02-05T01:12:22.417Z,-2
2023-02-05T01:13:25.846Z,-1.9
2023-02-05T01:14:28.903Z,-2
2023-02-05T01:15:33.018Z,-2
2023-02-05T01:16:36.754Z,-2
2023-02-05T01:17:40.773Z,-2
2023-02-05T01:18:44.408Z,-2.1
2023-02-05T01:19:46.920Z,-2.1
2023-02-05T01:20:50.262Z,-2.1
2023-02-05T01:21:53.764Z,-2.1
2023-02-05T01:22:57.035Z,-2.1
2023-02-05T01:24:00.182Z,-2
2023-02-05T01:25:03.662Z,-2
2023-02-05T01:26:06.740Z,-2.1
2023-02-05T01:27:09.717Z,-2.1
2023-02-05T01:28:12.438Z,-2.1
2023-02-05T01:29:15.729Z,-2.1
2023-02-05T01:30:19.196Z,-2.2
2023-02-05T01:31:22.992Z,-2.2
2023-02-05T01:32:27.009Z,-2.2
2023-02-05T01:33:30.775Z,-2.2
2023-02-05T01:34:34.144Z,-2.2
2023-02-05T01:35:37.905Z,-2.2
2023-02-05T01:36:40.608Z,-2.2
2023-02-05T01:37:43.396Z,-2.2
2023-02-05T01:38:46.581Z,-2.2
2023-02-05T01:39:49.578Z,-2.2
2023-02-05T01:40:52.834Z,-2.2
2023-02-05T01:41:55.825Z,-2.3
2023-02-05T01:42:59.150Z,-2.3
2023-02-05T01:44:02.006Z,-2.2
2023-02-05T01:45:05.057Z,-2.2
2023-02-05T01:46:09.092Z,-2.3
2023-02-05T01:47:12.093Z,-2.3
2023-02-05T01:48:15.475Z,-2.3
2023-02-05T01:49:19.289Z,-2.3
2023-02-05T01:50:22.268Z,-2.3
2023-02-05T01:51:25.402Z,-2.3
2023-02-05T01:52:29.106Z,-2.4
2023-02-05T01:53:32.502Z,-2.3
2023-02-05T01:54:36.001Z,-2.3
2023-02-05T01:55:39.736Z,-2.4
2023-02-05T01:56:43.185Z,-2.4
2023-02-05T01:57:46.320Z,-2.4
2023-02-05T01:58:49.740Z,-2.4
2023-02-05T01:59:52.651Z,-2.4
2023-02-05T02:00:56.399Z,-2.3
2023-02-05T02:02:00.005Z,-2.3
2023-02-05T02:03:02.737Z,-2.4
2023-02-05T02:04:06.170Z,-2.3
2023-02-05T02:05:10.202Z,-2.3
2023-02-05T02:06:13.418Z,-2.4
2023-02-05T02:07:16.376Z,-2.4
2023-02-05T02:08:19.385Z,-2.4
2023-02-05T02:09:22.319Z,-2.3
2023-02-05T02:10:26.317Z,-2.3
2023-02-05T02:11:29.691Z,-2.4
2023-02-05T02:12:32.840Z,-2.4
2023-02-05T02:13:36.320Z,-2.3
2023-02-05T02:14:39.917Z,-2.4
2023-02-05T02:15:43.028Z,-2.4
2023-02-05T02:16:46.085Z,-2.5
2023-02-05T02:17:48.800Z,-2.5
2023-02-05T02:18:52.802Z,-2.5
2023-02-05T02:19:56.282Z,-2.5
2023-02-05T02:21:00.338Z,-2.5
2023-02-05T02:22:03.430Z,-2.5
2023-02-05T02:23:06.510Z,-2.5
2023-02-05T02:24:09.970Z,-2.5
2023-02-05T02:25:13.123Z,-2.5
2023-02-05T02:26:16.578Z,-2.5
2023-02-05T02:27:20.703Z,-2.6
2023-02-05T02:28:24.073Z,-2.5
2023-02-05T02:29:26.782Z,-2.5
2023-02-05T02:30:29.498Z,-2.5
2023-02-05T02:31:32.763Z,-2.5
2023-02-05T02:32:36.505Z,-2.5
2023-02-05T02:33:39.364Z,-2.6
2023-02-05T02:34:42.432Z,-2.5
2023-02-05T02:35:46.089Z,-2.5
2023-02-05T02:36:49.838Z,-2.6
2023-02-05T02:37:52.895Z,-2.5
2023-02-05T02:38:56.541Z,-2.5
2023-02-05T02:39:59.911Z,-2.5
2023-02-05T02:41:03.251Z,-2.5
2023-02-05T02:42:06.584Z,-2.5
2023-02-05T02:43:09.930Z,-2.5
2023-02-05T02:44:12.927Z,-2.5
2023-02-05T02:45:15.481Z,-2.5
2023-02-05T02:46:18.728Z,-2.5
2023-02-05T02:47:22.122Z,-2.4
2023-02-05T02:48:25.186Z,-2.4
2023-02-05T02:49:28.651Z,-2.4
2023-02-05T02:50:32.349Z,-2.4
2023-02-05T02:51:36.273Z,-2.4
2023-02-05T02:52:40.108Z,-2.4
2023-02-05T02:53:43.556Z,-2.5
2023-02-05T02:54:46.622Z,-2.5
2023-02-05T02:55:49.842Z,-2.5
2023-02-05T02:56:53.015Z,-2.5
2023-02-05T02:57:56.342Z,-2.5
2023-02-05T02:58:58.851Z,-2.5
2023-02-05T03:00:01.846Z,-2.6
2023-02-05T03:01:05.136Z,-2.7
2023-02-05T03:02:08.884Z,-2.7
2023-02-05T03:03:11.929Z,-2.8
2023-02-05T03:04:15.221Z,-2.7
2023-02-05T03:05:18.257Z,-2.7
2023-02-05T03:06:21.489Z,-2.7
2023-02-05T03:07:24.676Z,-2.7
2023-02-05T03:08:28.467Z,-2.7
2023-02-05T03:09:31.611Z,-2.7
2023-02-05T03:10:34.647Z,-2.7
2023-02-05T03:11:38.282Z,-2.6
2023-02-05T03:12:41.642Z,-2.7
2023-02-05T03:13:45.016Z,-2.6
2023-02-05T03:14:48.385Z,-2.6
2023-02-05T03:15:52.264Z,-2.6
2023-02-05T03:16:55.937Z,-2.6
2023-02-05T03:17:59.110Z,-2.6
2023-02-05T03:19:02.165Z,-2.6
2023-02-05T03:20:05.216Z,-2.6
2023-02-05T03:21:08.940Z,-2.6
2023-02-05T03:22:12.371Z,-2.5
2023-02-05T03:23:15.852Z,-2.6
2023-02-05T03:24:19.961Z,-2.6
2023-02-05T03:25:22.683Z,-2.5
2023-02-05T03:26:26.362Z,-2.5
2023-02-05T03:27:28.812Z,-2.6
2023-02-05T03:28:32.477Z,-2.7
2023-02-05T03:29:36.002Z,-2.7
2023-02-05T03:30:38.759Z,-2.7
2023-02-05T03:31:43.180Z,-2.7
2023-02-05T03:32:46.598Z,-2.7
2023-02-05T03:33:49.693Z,-2.7
2023-02-05T03:34:52.480Z,-2.7
2023-02-05T03:35:55.627Z,-2.7
2023-02-05T03:36:58.700Z,-2.6
2023-02-05T03:38:02.436Z,-2.6
2023-02-05T03:39:06.582Z,-2.6
2023-02-05T03:40:10.304Z,-2.6
2023-02-05T03:41:13.379Z,-2.6
2023-02-05T03:42:15.893Z,-2.6
2023-02-05T03:43:18.404Z,-2.6
2023-02-05T03:44:21.741Z,-2.6
2023-02-05T03:45:25.186Z,-2.6
2023-02-05T03:46:28.658Z,-2.6
2023-02-05T03:47:31.750Z,-2.6
2023-02-05T03:48:35.016Z,-2.6
2023-02-05T03:49:38.374Z,-2.6
2023-02-05T03:50:41.739Z,-2.7
2023-02-05T03:51:45.090Z,-2.7
2023-02-05T03:52:48.422Z,-2.6
2023-02-05T03:53:51.563Z,-2.6
2023-02-05T03:54:55.401Z,-2.5
2023-02-05T03:55:59.232Z,-2.6
2023-02-05T03:57:02.516Z,-2.6
2023-02-05T03:58:05.858Z,-2.5
2023-02-05T03:59:09.298Z,-2.5
2023-02-05T04:00:12.742Z,-2.5
2023-02-05T04:01:16.196Z,-2.5
2023-02-05T04:02:19.206Z,-2.4
2023-02-05T04:03:22.399Z,-2.4
2023-02-05T04:04:26.106Z,-2.4
2023-02-05T04:05:29.792Z,-2.4
2023-02-05T04:06:33.014Z,-2.4
2023-02-05T04:07:36.333Z,-2.4
2023-02-05T04:08:39.549Z,-2.4
2023-02-05T04:09:42.995Z,-2.4
2023-02-05T04:10:46.838Z,-2.4
2023-02-05T04:11:50.653Z,-2.4
2023-02-05T04:12:54.037Z,-2.4
2023-02-05T04:13:57.481Z,-2.4
2023-02-05T04:15:01.129Z,-2.4
2023-02-05T04:16:04.237Z,-2.4
2023-02-05T04:17:07.699Z,-2.4
2023-02-05T04:18:11.420Z,-2.4
2023-02-05T04:19:14.302Z,-2.4
2023-02-05T04:20:17.952Z,-2.4
2023-02-05T04:21:21.682Z,-2.5
2023-02-05T04:22:24.678Z,-2.6
2023-02-05T04:23:27.257Z,-2.6
2023-02-05T04:24:29.993Z,-2.5
2023-02-05T04:25:35.169Z,-2.5
2023-02-05T04:26:38.259Z,-2.5
2023-02-05T04:27:42.572Z,-2.5
2023-02-05T04:28:45.708Z,-2.5
2023-02-05T04:29:49.363Z,-2.6
2023-02-05T04:30:53.080Z,-2.7
2023-02-05T04:31:57.167Z,-2.6
2023-02-05T04:33:00.725Z,-2.6
2023-02-05T04:34:04.376Z,-2.5
2023-02-05T04:35:07.441Z,-2.5
2023-02-05T04:36:10.579Z,-2.5
2023-02-05T04:37:14.011Z,-2.5
2023-02-05T04:38:16.802Z,-2.5
2023-02-05T04:39:20.095Z,-2.5
2023-02-05T04:40:23.053Z,-2.5
2023-02-05T04:41:26.850Z,-2.5
2023-02-05T04:42:30.135Z,-2.5
2023-02-05T04:43:34.198Z,-2.4
2023-02-05T04:44:37.556Z,-2.4
2023-02-05T04:45:41.918Z,-2.5
2023-02-05T04:46:45.111Z,-2.5
2023-02-05T04:47:48.276Z,-2.5
2023-02-05T04:48:51.998Z,-2.5
2023-02-05T04:49:55.157Z,-2.5
2023-02-05T04:50:58.311Z,-2.4
2023-02-05T04:52:01.412Z,-2.5
2023-02-05T04:53:04.126Z,-2.4
2023-02-05T04:54:07.097Z,-2.4
2023-02-05T04:55:10.733Z,-2.4
2023-02-05T04:56:13.864Z,-2.4
2023-02-05T04:57:16.864Z,-2.3
2023-02-05T04:58:20.445Z,-2.3
2023-02-05T04:59:23.929Z,-2.3
2023-02-05T05:00:27.263Z,-2.3
2023-02-05T05:01:31.145Z,-2.4
2023-02-05T05:02:34.668Z,-2.4
2023-02-05T05:03:37.918Z,-2.4
2023-02-05T05:04:44.321Z,-2.4
2023-02-05T05:05:47.658Z,-2.4
2023-02-05T05:06:51.144Z,-2.3
2023-02-05T05:07:54.875Z,-2.3
2023-02-05T05:08:57.731Z,-2.3
2023-02-05T05:10:01.067Z,-2.3
2023-02-05T05:11:04.325Z,-2.3
2023-02-05T05:12:07.365Z,-2.2
2023-02-05T05:13:10.511Z,-2.3
2023-02-05T05:14:14.273Z,-2.3
2023-02-05T05:15:18.108Z,-2.3
2023-02-05T05:16:21.064Z,-2.3
2023-02-05T05:17:24.865Z,-2.3
2023-02-05T05:18:27.579Z,-2.2
2023-02-05T05:19:30.846Z,-2.4
2023-02-05T05:20:34.201Z,-2.4
2023-02-05T05:21:37.362Z,-2.4
2023-02-05T05:22:40.084Z,-2.4
2023-02-05T05:23:42.801Z,-2.5
2023-02-05T05:24:45.576Z,-2.4
2023-02-05T05:25:48.079Z,-2.4
2023-02-05T05:26:51.075Z,-2.4
2023-02-05T05:27:54.483Z,-2.4
2023-02-05T05:28:57.886Z,-2.4
2023-02-05T05:30:01.417Z,-2.5
2023-02-05T05:31:05.548Z,-2.5
2023-02-05T05:32:08.931Z,-2.5
2023-02-05T05:33:11.726Z,-2.5
2023-02-05T05:34:15.021Z,-2.6
2023-02-05T05:35:18.730Z,-2.6
2023-02-05T05:36:21.810Z,-2.6
2023-02-05T05:37:24.882Z,-2.5
2023-02-05T05:38:27.581Z,-2.5
2023-02-05T05:39:31.272Z,-2.5
2023-02-05T05:40:34.704Z,-2.5
2023-02-05T05:41:38.140Z,-2.5
2023-02-05T05:42:41.193Z,-2.5
2023-02-05T05:43:44.235Z,-2.5
2023-02-05T05:44:48.292Z,-2.5
2023-02-05T05:45:51.417Z,-2.4
2023-02-05T05:46:55.520Z,-2.4
2023-02-05T05:47:58.416Z,-2.4
2023-02-05T05:49:00.917Z,-2.4
2023-02-05T05:50:03.796Z,-2.4
2023-02-05T05:51:07.233Z,-2.4
2023-02-05T05:52:09.389Z,-2.4
2023-02-05T05:53:12.093Z,-2.4
2023-02-05T05:54:15.236Z,-2.4
2023-02-05T05:55:18.339Z,-2.4
2023-02-05T05:56:22.172Z,-2.4
2023-02-05T05:57:25.338Z,-2.4
2023-02-05T05:58:27.768Z,-2.5
2023-02-05T05:59:30.748Z,-2.5
2023-02-05T06:00:33.440Z,-2.4
2023-02-05T06:01:36.986Z,-2.4
2023-02-05T06:02:41.002Z,-2.4
2023-02-05T06:03:43.872Z,-2.4
2023-02-05T06:04:47.915Z,-2.4
2023-02-05T06:05:51.317Z,-2.4
2023-02-05T06:06:54.397Z,-2.5
2023-02-05T06:07:56.609Z,-2.4
2023-02-05T06:08:59.961Z,-2.4
2023-02-05T06:10:03.457Z,-2.4
2023-02-05T06:11:07.206Z,-2.4
2023-02-05T06:12:13.521Z,-2.4
2023-02-05T06:13:16.376Z,-2.4
2023-02-05T06:14:19.443Z,-2.4
2023-02-05T06:15:22.765Z,-2.4
2023-02-05T06:16:25.866Z,-2.4
2023-02-05T06:17:28.870Z,-2.4
2023-02-05T06:18:32.698Z,-2.4
2023-02-05T06:19:35.612Z,-2.4
2023-02-05T06:20:38.613Z,-2.4
2023-02-05T06:21:41.887Z,-2.4
2023-02-05T06:22:44.942Z,-2.4
2023-02-05T06:23:48.042Z,-2.4
2023-02-05T06:24:51.128Z,-2.4
2023-02-05T06:25:53.837Z,-2.4
2023-02-05T06:26:56.968Z,-2.4
2023-02-05T06:28:00.721Z,-2.4
2023-02-05T06:29:03.676Z,-2.4
2023-02-05T06:30:07.249Z,-2.4
2023-02-05T06:31:11.391Z,-2.4
2023-02-05T06:32:14.484Z,-2.4
2023-02-05T06:33:24.624Z,-2.3
2023-02-05T06:34:28.441Z,-2.3
2023-02-05T06:35:31.860Z,-2.3
2023-02-05T06:36:35.872Z,-2.3
2023-02-05T06:37:49.242Z,-2.3
2023-02-05T06:38:52.969Z,-2.3
2023-02-05T06:39:56.291Z,-2.3
2023-02-05T06:40:59.274Z,-2.3
2023-02-05T06:42:02.192Z,-2.3
2023-02-05T06:43:05.481Z,-2.3
2023-02-05T06:44:08.578Z,-2.3
2023-02-05T06:45:11.441Z,-2.3
2023-02-05T06:46:15.406Z,-2.3
2023-02-05T06:47:18.570Z,-2.3
2023-02-05T06:48:22.088Z,-2.3
2023-02-05T06:49:25.159Z,-2.3
2023-02-05T06:50:29.148Z,-2.3
2023-02-05T06:51:32.878Z,-2.3
2023-02-05T06:52:35.975Z,-2.3
2023-02-05T06:53:39.058Z,-2.3
2023-02-05T06:54:42.176Z,-2.2
2023-02-05T06:55:45.314Z,-2.2
2023-02-05T06:56:48.216Z,-2.3
2023-02-05T06:57:51.832Z,-2.3
2023-02-05T06:58:55.193Z,-2.3
2023-02-05T06:59:58.626Z,-2.3
2023-02-05T07:01:01.773Z,-2.3
2023-02-05T07:02:05.118Z,-2.3
2023-02-05T07:03:08.124Z,-2.3
2023-02-05T07:04:11.909Z,-2.3
2023-02-05T07:05:15.277Z,-2.3
2023-02-05T07:06:19.085Z,-2.2
2023-02-05T07:07:22.602Z,-2.2
2023-02-05T07:08:26.008Z,-2.2
2023-02-05T07:09:29.090Z,-2.2
2023-02-05T07:10:32.311Z,-2.1
2023-02-05T07:11:34.838Z,-2.1
2023-02-05T07:12:38.170Z,-2.1
2023-02-05T07:13:40.974Z,-2.1
2023-02-05T07:14:44.420Z,-2
2023-02-05T07:15:47.447Z,-2
2023-02-05T07:16:50.975Z,-2
2023-02-05T07:17:54.239Z,-2
2023-02-05T07:18:57.984Z,-2
2023-02-05T07:20:00.935Z,-2
2023-02-05T07:21:04.306Z,-1.9
2023-02-05T07:22:08.169Z,-1.9
2023-02-05T07:23:11.060Z,-1.9
2023-02-05T07:24:13.871Z,-1.9
2023-02-05T07:25:16.649Z,-1.9
2023-02-05T07:26:19.632Z,-1.9
2023-02-05T07:27:23.062Z,-1.9
2023-02-05T07:28:26.198Z,-1.8
2023-02-05T07:29:28.807Z,-1.9
2023-02-05T07:30:32.461Z,-2
2023-02-05T07:31:35.836Z,-2.1
2023-02-05T07:32:39.273Z,-2
2023-02-05T07:33:42.697Z,-2
2023-02-05T07:34:45.678Z,-2
2023-02-05T07:35:49.020Z,-2
2023-02-05T07:36:52.186Z,-2
2023-02-05T07:37:56.229Z,-2
2023-02-05T07:38:59.283Z,-2.1
2023-02-05T07:40:02.710Z,-2
2023-02-05T07:41:06.459Z,-2
2023-02-05T07:42:09.900Z,-1.9
2023-02-05T07:43:13.240Z,-1.9
2023-02-05T07:44:16.746Z,-1.9
2023-02-05T07:45:20.177Z,-1.9
2023-02-05T07:46:24.307Z,-2
2023-02-05T07:47:27.422Z,-2
2023-02-05T07:48:31.169Z,-2
2023-02-05T07:49:34.624Z,-2
2023-02-05T07:50:37.968Z,-2
2023-02-05T07:51:41.525Z,-2
2023-02-05T07:52:44.782Z,-2
2023-02-05T07:53:48.284Z,-2
2023-02-05T07:54:51.605Z,-1.9
2023-02-05T07:55:55.592Z,-1.9
2023-02-05T07:56:58.014Z,-1.8
2023-02-05T07:58:01.736Z,-1.8
2023-02-05T07:59:05.392Z,-1.8
2023-02-05T08:00:08.223Z,-1.9
2023-02-05T08:01:11.839Z,-1.8
2023-02-05T08:02:14.316Z,-1.8
2023-02-05T08:03:17.355Z,-1.8
2023-02-05T08:04:20.800Z,-1.7
2023-02-05T08:05:23.825Z,-1.7
2023-02-05T08:06:26.954Z,-1.7
2023-02-05T08:07:30.035Z,-1.8
2023-02-05T08:08:33.203Z,-1.8
2023-02-05T08:09:36.773Z,-1.7
2023-02-05T08:10:40.417Z,-1.7
2023-02-05T08:11:43.674Z,-1.7
2023-02-05T08:12:47.032Z,-1.6
2023-02-05T08:13:50.488Z,-1.6
2023-02-05T08:14:53.563Z,-1.6
2023-02-05T08:15:56.831Z,-1.6
2023-02-05T08:17:00.595Z,-1.6
2023-02-05T08:18:04.130Z,-1.6
2023-02-05T08:19:07.230Z,-1.6
2023-02-05T08:20:10.253Z,-1.6
2023-02-05T08:21:13.311Z,-1.6
2023-02-05T08:22:16.715Z,-1.6
2023-02-05T08:23:20.435Z,-1.6
2023-02-05T08:24:23.799Z,-1.6
2023-02-05T08:25:27.509Z,-1.6
2023-02-05T08:26:30.938Z,-1.5
2023-02-05T08:27:34.052Z,-1.5
2023-02-05T08:28:37.810Z,-1.5
2023-02-05T08:29:40.514Z,-1.5
2023-02-05T08:30:44.064Z,-1.4
2023-02-05T08:31:47.613Z,-1.4
2023-02-05T08:32:51.696Z,-1.4
2023-02-05T08:33:54.116Z,-1.4
2023-02-05T08:34:57.527Z,-1.4
2023-02-05T08:36:00.680Z,-1.4
2023-02-05T08:37:03.837Z,-1.4
2023-02-05T08:38:07.483Z,-1.4
2023-02-05T08:39:11.229Z,-1.4
2023-02-05T08:40:13.681Z,-1.4
2023-02-05T08:41:17.374Z,-1.4
2023-02-05T08:42:20.896Z,-1.4
2023-02-05T08:43:24.226Z,-1.4
2023-02-05T08:44:26.940Z,-1.4
2023-02-05T08:45:30.555Z,-1.4
2023-02-05T08:46:51.704Z,-1.4
2023-02-05T08:47:54.685Z,-1.4
2023-02-05T08:48:58.053Z,-1.3
2023-02-05T08:50:01.417Z,-1.3
2023-02-05T08:51:04.910Z,-1.2
2023-02-05T08:52:08.134Z,-1.2
2023-02-05T08:53:11.472Z,-1.1
2023-02-05T08:54:14.985Z,-1.2
2023-02-05T08:55:18.753Z,-1.2
2023-02-05T08:56:22.549Z,-1.2
2023-02-05T08:57:25.600Z,-1.1
2023-02-05T08:58:29.013Z,-1.1
2023-02-05T08:59:32.725Z,-1.1
2023-02-05T09:00:36.352Z,-1.1
2023-02-05T09:01:38.868Z,-1
2023-02-05T09:02:42.128Z,-0.9
2023-02-05T09:03:44.958Z,-0.9
2023-02-05T09:04:48.030Z,-0.8
2023-02-05T09:05:51.742Z,-0.8
2023-02-05T09:06:55.103Z,-0.7
2023-02-05T09:07:58.495Z,-0.6
2023-02-05T09:09:01.556Z,-0.6
2023-02-05T09:10:04.961Z,-0.6
2023-02-05T09:11:08.328Z,-0.6
2023-02-05T09:12:12.726Z,-0.5
2023-02-05T09:13:15.791Z,-0.5
2023-02-05T09:14:18.957Z,-0.5
2023-02-05T09:15:23.283Z,-0.5
2023-02-05T09:16:26.646Z,-0.6
2023-02-05T09:17:29.826Z,-0.5
2023-02-05T09:18:33.262Z,-0.5
2023-02-05T09:19:36.414Z,-0.4
2023-02-05T09:20:40.097Z,-0.4
2023-02-05T09:21:43.205Z,-0.4
2023-02-05T09:22:46.492Z,-0.4
2023-02-05T09:23:49.958Z,-0.4
2023-02-05T09:24:53.646Z,-0.4
2023-02-05T09:25:57.434Z,-0.3
2023-02-05T09:27:00.327Z,-0.4
2023-02-05T09:28:04.564Z,-0.4
2023-02-05T09:29:07.814Z,-0.4
2023-02-05T09:30:10.903Z,-0.3
2023-02-05T09:31:15.187Z,-0.3
2023-02-05T09:32:18.762Z,-0.2
2023-02-05T09:33:22.116Z,-0.1
2023-02-05T09:34:25.181Z,-0.1
2023-02-05T09:35:28.611Z,0
2023-02-05T09:36:31.188Z,0
2023-02-05T09:37:34.653Z,0.2
2023-02-05T09:38:37.857Z,0.2
2023-02-05T09:40:24.186Z,0.3
2023-02-05T09:41:31.569Z,0.3
2023-02-05T09:42:35.530Z,0.3
2023-02-05T09:43:39.766Z,0.3
2023-02-05T09:44:43.131Z,0.2
2023-02-05T09:45:46.932Z,0.1
2023-02-05T09:46:49.970Z,0
2023-02-05T09:47:52.405Z,-0.1
2023-02-05T09:48:55.408Z,0
2023-02-05T09:49:58.777Z,0
2023-02-05T09:51:01.862Z,0
2023-02-05T09:52:05.464Z,-0.1
2023-02-05T09:53:08.889Z,-0.1
2023-02-05T09:54:12.331Z,-0.1
2023-02-05T09:55:14.935Z,0
2023-02-05T09:56:18.561Z,-0.1
2023-02-05T09:57:21.644Z,-0.1
2023-02-05T09:58:25.003Z,-0.1
2023-02-05T09:59:29.101Z,-0.1
2023-02-05T10:00:32.865Z,-0.1
2023-02-05T10:01:36.539Z,0
2023-02-05T10:02:39.796Z,0.1
2023-02-05T10:03:42.685Z,0.1
2023-02-05T10:04:45.859Z,0.2
2023-02-05T10:05:48.936Z,0.2
2023-02-05T10:06:51.724Z,0.2
2023-02-05T10:07:55.111Z,0.3
2023-02-05T10:08:58.190Z,0.4
2023-02-05T10:10:01.557Z,0.3
2023-02-05T10:11:05.076Z,0.4
2023-02-05T10:12:09.066Z,0.5
2023-02-05T10:13:13.170Z,0.4
2023-02-05T10:14:16.889Z,0.5
2023-02-05T10:15:20.418Z,0.5
2023-02-05T10:16:23.984Z,0.6
2023-02-05T10:17:27.651Z,0.7
2023-02-05T10:18:31.353Z,0.6
2023-02-05T10:19:34.702Z,0.7
2023-02-05T10:20:38.250Z,0.8
2023-02-05T10:21:41.061Z,0.9
2023-02-05T10:22:44.066Z,0.9
2023-02-05T10:23:47.814Z,1
2023-02-05T10:24:50.693Z,1.1
2023-02-05T10:25:53.755Z,1.1
2023-02-05T10:26:56.482Z,1.2
2023-02-05T10:27:59.596Z,1.3
2023-02-05T10:29:03.057Z,1.2
2023-02-05T10:30:07.128Z,1.3
2023-02-05T10:31:11.646Z,1.4
2023-02-05T10:32:15.265Z,1.4
2023-02-05T10:33:18.641Z,1.4
2023-02-05T10:34:22.147Z,1.4
2023-02-05T10:35:25.602Z,1.4
2023-02-05T10:36:28.956Z,1.3
2023-02-05T10:37:32.033Z,1.2
2023-02-05T10:38:34.748Z,1
2023-02-05T10:39:37.330Z,1
2023-02-05T10:40:39.862Z,1.1
2023-02-05T10:41:43.571Z,1
2023-02-05T10:42:46.651Z,1.1
2023-02-05T10:43:49.661Z,1.1
2023-02-05T10:44:53.443Z,1.1
2023-02-05T10:45:56.608Z,1.2
2023-02-05T10:47:00.838Z,1.4
2023-02-05T10:48:04.295Z,1.6
2023-02-05T10:49:07.650Z,1.8
2023-02-05T10:50:11.277Z,1.9
2023-02-05T10:51:14.958Z,2
2023-02-05T10:52:17.424Z,2.2
2023-02-05T10:53:20.243Z,2.3
2023-02-05T10:54:23.614Z,2.3
2023-02-05T10:55:26.600Z,2.4
2023-02-05T10:56:30.040Z,2.5
2023-02-05T10:57:33.211Z,2.5
2023-02-05T10:58:35.994Z,2.7
2023-02-05T10:59:39.689Z,2.8
2023-02-05T11:00:43.782Z,2.8
2023-02-05T11:01:47.509Z,2.9
2023-02-05T11:02:52.089Z,3
2023-02-05T11:03:55.564Z,2.9
2023-02-05T11:04:59.006Z,3
2023-02-05T11:06:01.637Z,3.1
2023-02-05T11:07:04.635Z,3.2
2023-02-05T11:08:07.059Z,3.3
2023-02-05T11:09:10.343Z,3.2
2023-02-05T11:10:13.770Z,3
2023-02-05T11:11:17.214Z,2.8
2023-02-05T11:12:20.506Z,2.8
2023-02-05T11:13:23.914Z,2.5
2023-02-05T11:14:27.355Z,2.3
2023-02-05T11:15:30.640Z,2.2
2023-02-05T11:16:33.951Z,2.2
2023-02-05T11:17:37.432Z,2.2
2023-02-05T11:18:41.622Z,2.1
2023-02-05T11:19:45.319Z,1.9
2023-02-05T11:20:48.711Z,1.9
2023-02-05T11:21:51.592Z,2
2023-02-05T11:22:54.937Z,2.2
2023-02-05T11:23:57.559Z,2.1
2023-02-05T11:25:00.931Z,2.2
2023-02-05T11:26:03.793Z,2.3
2023-02-05T11:27:06.923Z,2.3
2023-02-05T11:28:10.391Z,2.2
2023-02-05T11:29:13.541Z,2.3
2023-02-05T11:30:17.796Z,2.3
2023-02-05T11:31:36.069Z,2.4
2023-02-05T11:32:39.752Z,2.5
2023-02-05T11:33:43.410Z,2.5
2023-02-05T11:34:46.842Z,2.6
2023-02-05T11:35:50.192Z,2.6
2023-02-05T11:36:53.934Z,2.7
2023-02-05T11:37:57.076Z,2.8
2023-02-05T11:39:00.544Z,2.8
2023-02-05T11:40:03.927Z,2.9
2023-02-05T11:41:07.059Z,2.9
2023-02-05T11:42:11.057Z,2.9
2023-02-05T11:43:13.839Z,2.8
2023-02-05T11:44:16.920Z,2.9
2023-02-05T11:45:20.367Z,2.8
2023-02-05T11:46:24.294Z,2.6
2023-02-05T11:47:28.426Z,2.5
2023-02-05T11:48:31.825Z,2.6
2023-02-05T11:49:35.548Z,2.6
2023-02-05T11:50:39.283Z,2.7
2023-02-05T11:51:42.281Z,2.7
2023-02-05T11:52:45.611Z,2.7
2023-02-05T11:53:49.404Z,2.7
2023-02-05T11:54:52.200Z,2.7
2023-02-05T11:55:55.552Z,2.6
2023-02-05T11:56:59.038Z,2.5
2023-02-05T11:58:02.454Z,2.3
2023-02-05T11:59:05.161Z,2.3
2023-02-05T12:00:08.521Z,2.4
2023-02-05T12:01:11.783Z,2.4
2023-02-05T12:02:15.217Z,2.3
2023-02-05T12:03:18.461Z,2.3
2023-02-05T12:04:21.329Z,2.2
2023-02-05T12:05:25.158Z,2.2
2023-02-05T12:06:28.481Z,2
2023-02-05T12:07:31.546Z,2.1
2023-02-05T12:08:34.911Z,2.1
2023-02-05T12:09:37.344Z,2.1
2023-02-05T12:10:41.062Z,2
2023-02-05T12:11:44.303Z,2
2023-02-05T12:12:47.480Z,2
2023-02-05T12:13:50.874Z,2.1
2023-02-05T12:14:54.134Z,2.1
2023-02-05T12:15:57.743Z,2.1
2023-02-05T12:17:01.403Z,2.2
2023-02-05T12:18:04.494Z,2.2
2023-02-05T12:19:07.848Z,2.2
2023-02-05T12:20:10.685Z,2.3
2023-02-05T12:21:14.495Z,2.3
2023-02-05T12:22:17.911Z,2.2
2023-02-05T12:23:20.909Z,2.3
2023-02-05T12:24:23.636Z,2.3
2023-02-05T12:25:27.307Z,2.3
2023-02-05T12:26:30.731Z,2.3
2023-02-05T12:27:34.073Z,2.3
2023-02-05T12:28:37.413Z,2.3
2023-02-05T12:29:40.392Z,2.2
2023-02-05T12:30:43.932Z,2.2
2023-02-05T12:31:47.591Z,2.2
2023-02-05T12:32:50.990Z,2.3
2023-02-05T12:34:09.034Z,2.3
2023-02-05T12:35:12.456Z,2.4
2023-02-05T12:36:16.419Z,2.4
2023-02-05T12:37:20.163Z,2.3
2023-02-05T12:38:34.458Z,2.4
2023-02-05T12:39:38.399Z,2.3
2023-02-05T12:40:41.809Z,2.3
2023-02-05T12:41:45.276Z,2.2
2023-02-05T12:42:47.785Z,2.2
2023-02-05T12:43:51.119Z,2.3
2023-02-05T12:44:54.100Z,2.3
2023-02-05T12:45:57.961Z,2.3
2023-02-05T12:47:01.212Z,2.4
2023-02-05T12:48:04.921Z,2.4
2023-02-05T12:49:07.860Z,2.5
2023-02-05T12:50:10.917Z,2.5
2023-02-05T12:51:14.341Z,2.5
2023-02-05T12:52:17.805Z,2.6
2023-02-05T12:53:21.320Z,2.7
2023-02-05T12:54:24.009Z,2.8
2023-02-05T12:55:27.343Z,2.6
2023-02-05T12:56:30.414Z,2.7
2023-02-05T12:57:33.325Z,2.6
2023-02-05T12:58:36.296Z,2.6
2023-02-05T12:59:39.617Z,2.7
2023-02-05T13:00:43.268Z,2.7
2023-02-05T13:01:46.643Z,2.7
2023-02-05T13:02:50.065Z,2.7
2023-02-05T13:03:53.828Z,2.7
2023-02-05T13:04:57.310Z,2.7
2023-02-05T13:06:00.300Z,2.8
2023-02-05T13:07:03.326Z,2.7
2023-02-05T13:08:06.813Z,2.8
2023-02-05T13:09:10.836Z,2.8
2023-02-05T13:10:13.624Z,2.9
2023-02-05T13:11:16.685Z,3.1
2023-02-05T13:12:20.110Z,3.1
2023-02-05T13:13:22.814Z,3.2
2023-02-05T13:14:25.792Z,3.2
2023-02-05T13:15:28.931Z,3.2
2023-02-05T13:16:32.975Z,3.3
2023-02-05T13:17:35.848Z,3.3
2023-02-05T13:18:39.528Z,3.3
2023-02-05T13:19:42.989Z,3.3
2023-02-05T13:20:46.713Z,3.3
2023-02-05T13:21:50.318Z,3.4
2023-02-05T13:22:53.514Z,3.4
2023-02-05T13:23:56.600Z,3.4
2023-02-05T13:25:00.376Z,3.4
2023-02-05T13:26:03.162Z,3.4
2023-02-05T13:27:06.510Z,3.4
2023-02-05T13:28:10.790Z,3.3
2023-02-05T13:29:16.061Z,3.3
2023-02-05T13:30:19.998Z,3.2
2023-02-05T13:31:25.010Z,3.1
2023-02-05T13:32:28.900Z,3
2023-02-05T13:33:32.219Z,2.9
2023-02-05T13:34:36.223Z,2.9
2023-02-05T13:35:39.103Z,2.9
2023-02-05T13:36:42.496Z,3.1
2023-02-05T13:37:46.092Z,3.3
2023-02-05T13:38:49.747Z,3.6
2023-02-05T13:39:52.545Z,3.8
2023-02-05T13:40:56.657Z,3.9
2023-02-05T13:42:00.375Z,4.2
2023-02-05T13:43:03.414Z,4.3
2023-02-05T13:44:07.381Z,4.3
2023-02-05T13:45:10.082Z,4.4
2023-02-05T13:46:14.089Z,4.5
2023-02-05T13:47:17.208Z,4.5
2023-02-05T13:48:19.992Z,4.4
2023-02-05T13:49:23.326Z,4.3
2023-02-05T13:50:26.305Z,4.3
2023-02-05T13:51:29.670Z,4.3
2023-02-05T13:52:33.164Z,4.2
2023-02-05T13:53:36.796Z,4.2
2023-02-05T13:54:40.665Z,4.2
2023-02-05T13:55:44.118Z,4.3
2023-02-05T13:56:47.930Z,4.3
2023-02-05T13:57:51.538Z,4.2
2023-02-05T13:58:54.686Z,4.3
2023-02-05T13:59:58.411Z,4.2
2023-02-05T14:01:02.014Z,4.1
2023-02-05T14:02:05.232Z,4.1
2023-02-05T14:03:08.725Z,4
2023-02-05T14:04:12.121Z,4
2023-02-05T14:05:14.519Z,3.9
2023-02-05T14:06:18.175Z,4
2023-02-05T14:07:20.622Z,4
2023-02-05T14:08:23.979Z,4
2023-02-05T14:09:27.310Z,3.9
2023-02-05T14:10:30.689Z,3.9
2023-02-05T14:11:34.180Z,3.8
2023-02-05T14:12:43.464Z,3.8
2023-02-05T14:13:46.923Z,3.7
2023-02-05T14:14:50.092Z,3.5
2023-02-05T14:15:53.314Z,3.5
2023-02-05T14:16:57.096Z,3.4
2023-02-05T14:17:59.258Z,3.4
2023-02-05T14:19:02.745Z,3.4
2023-02-05T14:20:06.218Z,3.4